createdAt,value
2018-05-31T00:02:25.255Z,24.09
2018-05-31T00:05:28.246Z,24.00
2018-05-31T00:08:30.904Z,23.97
2018-05-31T00:11:34.527Z,23.99
2018-05-31T00:14:36.935Z,23.88
2018-05-31T00:17:39.497Z,23.77
2018-05-31T00:20:41.996Z,23.76
2018-05-31T00:23:44.562Z,23.73
2018-05-31T00:26:47.103Z,23.67
2018-05-31T00:29:49.512Z,23.57
2018-05-31T00:32:51.971Z,23.56
2018-05-31T00:35:55.139Z,23.40
2018-05-31T00:38:57.561Z,23.40
2018-05-31T00:42:00.408Z,23.38
2018-05-31T00:45:03.117Z,23.31
2018-05-31T00:48:05.216Z,23.23
2018-05-31T00:51:07.703Z,23.04
2018-05-31T00:54:10.249Z,22.97
2018-05-31T00:57:12.613Z,22.82
2018-05-31T01:00:14.741Z,22.74
2018-05-31T01:03:18.308Z,22.62
2018-05-31T01:06:20.808Z,22.22
2018-05-31T01:09:23.291Z,22.12
2018-05-31T01:12:26.673Z,22.24
2018-05-31T01:15:28.886Z,22.19
2018-05-31T01:18:31.701Z,22.28
2018-05-31T01:21:35.865Z,22.34
2018-05-31T01:24:38.400Z,22.39
2018-05-31T01:27:40.939Z,22.47
2018-05-31T01:30:43.471Z,22.47
2018-05-31T01:33:46.905Z,22.33
2018-05-31T01:36:48.983Z,22.27
2018-05-31T01:39:51.625Z,22.27
2018-05-31T01:42:54.033Z,22.39
2018-05-31T01:45:57.585Z,22.39
2018-05-31T01:49:00.073Z,22.39
2018-05-31T01:52:02.622Z,22.41
2018-05-31T01:55:05.089Z,22.28
2018-05-31T01:58:07.122Z,22.32
2018-05-31T02:01:11.656Z,22.30
2018-05-31T02:04:14.142Z,22.18
2018-05-31T02:07:16.185Z,22.08
2018-05-31T02:10:18.749Z,22.05
2018-05-31T02:13:20.718Z,22.00
2018-05-31T02:16:23.265Z,21.96
2018-05-31T02:19:26.456Z,21.88
2018-05-31T02:22:29.064Z,21.77
2018-05-31T02:25:31.265Z,21.78
2018-05-31T02:28:35.812Z,21.68
2018-05-31T02:31:38.294Z,21.63
2018-05-31T02:34:40.940Z,21.67
2018-05-31T02:37:43.360Z,21.66
2018-05-31T02:40:45.947Z,21.63
2018-05-31T02:43:48.932Z,21.51
2018-05-31T02:46:51.389Z,21.47
2018-05-31T02:49:53.481Z,21.44
2018-05-31T02:52:56.697Z,21.53
2018-05-31T02:55:59.027Z,21.52
2018-05-31T02:59:01.525Z,21.54
2018-05-31T03:02:04.096Z,21.59
2018-05-31T03:05:06.486Z,21.44
2018-05-31T03:08:09.144Z,21.42
2018-05-31T03:11:11.671Z,21.43
2018-05-31T03:14:13.642Z,21.31
2018-05-31T03:17:16.156Z,21.21
2018-05-31T03:20:18.676Z,21.15
2018-05-31T03:23:21.192Z,21.11
2018-05-31T03:26:23.522Z,21.01
2018-05-31T03:29:26.733Z,21.01
2018-05-31T03:32:29.286Z,21.03
2018-05-31T03:35:31.724Z,20.97
2018-05-31T03:38:34.332Z,20.93
2018-05-31T03:41:36.835Z,20.86
2018-05-31T03:44:39.316Z,20.76
2018-05-31T03:47:41.805Z,20.73
2018-05-31T03:50:49.891Z,20.80
2018-05-31T03:53:52.413Z,20.89
2018-05-31T03:56:54.866Z,20.97
2018-05-31T03:59:58.070Z,20.95
2018-05-31T04:03:00.456Z,20.84
2018-05-31T04:06:02.927Z,20.60
2018-05-31T04:09:06.008Z,20.48
2018-05-31T04:12:08.999Z,20.51
2018-05-31T04:15:11.551Z,20.55
2018-05-31T04:18:14.085Z,20.50
2018-05-31T04:21:17.637Z,20.47
2018-05-31T04:24:21.069Z,20.56
2018-05-31T04:27:28.636Z,20.61
2018-05-31T04:30:31.175Z,20.63
2018-05-31T04:33:33.649Z,20.72
2018-05-31T04:36:36.090Z,20.80
2018-05-31T04:39:38.161Z,20.85
2018-05-31T04:42:40.728Z,20.93
2018-05-31T04:45:43.128Z,21.00
2018-05-31T04:48:45.779Z,20.95
2018-05-31T04:51:48.463Z,20.82
2018-05-31T04:54:51.047Z,20.90
2018-05-31T04:57:53.348Z,20.97
2018-05-31T05:00:56.807Z,21.08
2018-05-31T05:03:59.332Z,21.05
2018-05-31T05:07:01.896Z,21.02
2018-05-31T05:10:04.388Z,20.82
2018-05-31T05:13:07.990Z,20.87
2018-05-31T05:16:10.493Z,21.04
2018-05-31T05:19:12.970Z,21.07
2018-05-31T05:22:15.037Z,20.90
2018-05-31T05:25:17.537Z,20.87
2018-05-31T05:28:21.074Z,21.04
2018-05-31T05:31:23.604Z,21.20
2018-05-31T05:34:27.153Z,21.32
2018-05-31T05:37:29.554Z,21.33
2018-05-31T05:40:32.128Z,21.41
2018-05-31T05:43:34.654Z,21.54
2018-05-31T05:46:37.120Z,21.50
2018-05-31T05:49:39.580Z,21.52
2018-05-31T05:52:42.166Z,21.55
2018-05-31T05:55:44.804Z,21.65
2018-05-31T05:58:47.283Z,21.73
2018-05-31T06:01:50.814Z,21.79
2018-05-31T06:04:53.267Z,21.70
2018-05-31T06:07:55.662Z,21.82
2018-05-31T06:10:58.752Z,21.95
2018-05-31T06:14:01.231Z,21.97
2018-05-31T06:17:03.353Z,22.07
2018-05-31T06:20:05.797Z,22.24
2018-05-31T06:23:09.281Z,22.33
2018-05-31T06:26:11.449Z,22.23
2018-05-31T06:29:13.945Z,22.29
2018-05-31T06:32:16.493Z,22.25
2018-05-31T06:35:19.155Z,22.35
2018-05-31T06:38:21.470Z,22.46
2018-05-31T06:41:23.846Z,22.56
2018-05-31T06:44:25.958Z,22.53
2018-05-31T06:47:29.520Z,22.62
2018-05-31T06:50:31.967Z,22.45
2018-05-31T06:53:34.027Z,22.49
2018-05-31T06:56:36.628Z,22.73
2018-05-31T06:59:39.048Z,22.72
2018-05-31T07:02:41.255Z,22.91
2018-05-31T07:05:43.954Z,23.20
2018-05-31T07:08:46.133Z,23.26
2018-05-31T07:11:48.660Z,23.34
2018-05-31T07:14:51.231Z,23.40
2018-05-31T07:17:53.668Z,23.62
2018-05-31T07:20:56.167Z,23.79
2018-05-31T07:23:59.719Z,23.92
2018-05-31T07:27:02.292Z,23.80
2018-05-31T07:30:04.851Z,23.75
2018-05-31T07:33:08.263Z,23.88
2018-05-31T07:36:10.838Z,24.04
2018-05-31T07:39:12.878Z,24.22
2018-05-31T07:42:15.408Z,24.38
2018-05-31T07:45:17.949Z,24.45
2018-05-31T07:48:20.435Z,24.48
2018-05-31T07:51:23.031Z,24.35
2018-05-31T07:54:25.538Z,24.43
2018-05-31T07:57:29.431Z,24.45
2018-05-31T08:00:31.432Z,24.62
2018-05-31T08:03:34.119Z,24.28
2018-05-31T08:06:36.524Z,24.40
2018-05-31T08:09:39.044Z,24.71
2018-05-31T08:12:42.656Z,24.86
2018-05-31T08:15:45.028Z,24.95
2018-05-31T08:18:47.122Z,24.69
2018-05-31T08:21:49.556Z,24.61
2018-05-31T08:24:52.087Z,24.58
2018-05-31T08:27:55.552Z,24.80
2018-05-31T08:30:59.188Z,25.15
2018-05-31T08:34:01.489Z,25.38
2018-05-31T08:37:04.196Z,25.13
2018-05-31T08:40:06.796Z,25.08
2018-05-31T08:43:09.316Z,25.37
2018-05-31T08:46:12.697Z,25.52
2018-05-31T08:49:14.783Z,25.06
2018-05-31T08:52:17.326Z,25.05
2018-05-31T08:55:20.749Z,24.92
2018-05-31T08:58:22.824Z,25.15
2018-05-31T09:01:25.389Z,25.54
2018-05-31T09:04:28.463Z,25.67
2018-05-31T09:07:30.913Z,25.73
2018-05-31T09:10:33.484Z,25.83
2018-05-31T09:13:36.302Z,25.84
2018-05-31T09:16:38.515Z,25.27
2018-05-31T09:19:40.610Z,25.33
2018-05-31T09:22:42.998Z,25.62
2018-05-31T09:25:45.543Z,25.94
2018-05-31T09:28:48.053Z,26.23
2018-05-31T09:31:50.550Z,26.25
2018-05-31T09:34:52.569Z,26.11
2018-05-31T09:37:54.971Z,26.36
2018-05-31T09:40:58.442Z,26.64
2018-05-31T09:44:00.887Z,26.94
2018-05-31T09:47:03.141Z,27.01
2018-05-31T09:50:07.184Z,26.89
2018-05-31T09:53:09.704Z,26.98
2018-05-31T09:56:12.111Z,26.83
2018-05-31T09:59:15.708Z,26.70
2018-05-31T10:02:18.343Z,26.96
2018-05-31T10:05:20.837Z,27.04
2018-05-31T10:08:22.821Z,27.12
2018-05-31T10:11:25.347Z,27.11
2018-05-31T10:14:28.772Z,27.27
2018-05-31T10:17:31.264Z,27.37
2018-05-31T10:20:33.948Z,27.36
2018-05-31T10:23:36.365Z,27.32
2018-05-31T10:26:38.903Z,27.36
2018-05-31T10:29:42.233Z,27.45
2018-05-31T10:32:46.057Z,27.45
2018-05-31T10:35:49.526Z,27.58
2018-05-31T10:38:53.094Z,27.48
2018-05-31T10:41:56.607Z,27.48
2018-05-31T10:45:01.106Z,27.59
2018-05-31T10:48:06.015Z,27.81
2018-05-31T10:51:09.865Z,27.62
2018-05-31T10:54:14.208Z,27.61
2018-05-31T10:57:17.735Z,27.83
2018-05-31T11:00:20.649Z,27.79
2018-05-31T11:03:23.632Z,27.94
2018-05-31T11:06:26.181Z,28.19
2018-05-31T11:09:29.761Z,28.30
2018-05-31T11:12:32.431Z,28.49
2018-05-31T11:15:34.660Z,28.64
2018-05-31T11:18:37.212Z,28.28
2018-05-31T11:21:39.646Z,28.22
2018-05-31T11:24:41.678Z,28.42
2018-05-31T11:27:44.258Z,28.54
2018-05-31T11:30:46.780Z,28.64
2018-05-31T11:33:51.280Z,28.31
2018-05-31T11:36:53.760Z,28.30
2018-05-31T11:39:57.323Z,28.38
2018-05-31T11:43:00.308Z,28.66
2018-05-31T11:46:02.878Z,28.71
2018-05-31T11:49:05.368Z,28.85
2018-05-31T11:52:07.926Z,28.88
2018-05-31T11:55:10.454Z,28.95
2018-05-31T11:58:12.874Z,29.01
2018-05-31T12:01:14.963Z,28.87
2018-05-31T12:04:17.457Z,28.86
2018-05-31T12:07:19.776Z,29.01
2018-05-31T12:10:22.328Z,29.17
2018-05-31T12:13:25.492Z,29.22
2018-05-31T12:16:28.036Z,29.33
2018-05-31T12:19:31.926Z,29.32
2018-05-31T12:22:34.632Z,29.49
2018-05-31T12:25:37.100Z,29.53
2018-05-31T12:28:39.581Z,29.57
2018-05-31T12:31:42.147Z,29.20
2018-05-31T12:34:44.631Z,28.94
2018-05-31T12:37:47.162Z,28.76
2018-05-31T12:40:49.704Z,28.72
2018-05-31T12:43:52.184Z,28.74
2018-05-31T12:46:55.118Z,28.73
2018-05-31T12:49:57.736Z,28.52
2018-05-31T12:53:01.715Z,28.46
2018-05-31T12:56:03.809Z,28.56
2018-05-31T12:59:06.230Z,28.71
2018-05-31T13:02:08.776Z,28.67
2018-05-31T13:05:11.272Z,28.72
2018-05-31T13:08:13.234Z,28.57
2018-05-31T13:11:15.289Z,28.56
2018-05-31T13:14:17.871Z,28.48
2018-05-31T13:17:20.401Z,28.79
2018-05-31T13:20:22.851Z,29.16
2018-05-31T13:23:25.340Z,29.26
2018-05-31T13:26:27.906Z,29.27
2018-05-31T13:29:31.417Z,29.48
2018-05-31T13:32:34.415Z,29.62
2018-05-31T13:35:37.492Z,29.53
2018-05-31T13:38:39.499Z,29.81
2018-05-31T13:41:42.033Z,29.76
2018-05-31T13:44:44.561Z,29.90
2018-05-31T13:47:48.085Z,29.91
2018-05-31T13:50:50.640Z,29.63
2018-05-31T13:53:53.116Z,29.68
2018-05-31T13:56:55.623Z,29.67
2018-05-31T13:59:58.131Z,29.77
2018-05-31T14:03:01.532Z,29.87
2018-05-31T14:06:03.616Z,29.86
2018-05-31T14:09:06.262Z,29.65
2018-05-31T14:12:08.670Z,29.59
2018-05-31T14:15:11.185Z,29.63
2018-05-31T14:18:14.642Z,29.77
2018-05-31T14:21:16.733Z,29.56
2018-05-31T14:24:19.263Z,29.49
2018-05-31T14:27:21.788Z,29.44
2018-05-31T14:30:24.274Z,29.54
2018-05-31T14:33:26.729Z,29.59
2018-05-31T14:36:30.267Z,29.66
2018-05-31T14:39:32.909Z,29.48
2018-05-31T14:42:35.360Z,29.30
2018-05-31T14:45:37.798Z,29.20
2018-05-31T14:48:41.372Z,28.97
2018-05-31T14:51:43.831Z,28.84
2018-05-31T14:54:45.915Z,28.71
2018-05-31T14:57:48.477Z,28.47
2018-05-31T15:00:51.007Z,28.27
2018-05-31T15:03:53.528Z,28.14
2018-05-31T15:06:56.004Z,28.11
2018-05-31T15:09:58.479Z,28.20
2018-05-31T15:13:01.985Z,28.23
2018-05-31T15:16:04.563Z,28.18
2018-05-31T15:19:07.116Z,28.18
2018-05-31T15:22:09.636Z,28.23
2018-05-31T15:25:12.154Z,28.21
2018-05-31T15:28:15.134Z,28.18
2018-05-31T15:31:17.149Z,28.16
2018-05-31T15:34:19.746Z,28.17
2018-05-31T15:37:22.155Z,28.18
2018-05-31T15:40:24.654Z,28.46
2018-05-31T15:43:26.691Z,28.64
2018-05-31T15:46:29.178Z,28.67
2018-05-31T15:49:32.315Z,28.58
2018-05-31T15:52:34.786Z,28.68
2018-05-31T15:55:37.249Z,28.53
2018-05-31T15:58:39.840Z,28.13
2018-05-31T16:01:42.299Z,28.25
2018-05-31T16:04:44.548Z,28.38
2018-05-31T16:07:46.871Z,28.53
2018-05-31T16:10:48.888Z,28.70
2018-05-31T16:13:51.288Z,28.82
2018-05-31T16:16:53.420Z,28.87
2018-05-31T16:19:55.980Z,28.97
2018-05-31T16:22:58.441Z,29.11
2018-05-31T16:26:01.988Z,29.27
2018-05-31T16:29:04.433Z,28.81
2018-05-31T16:32:07.008Z,28.97
2018-05-31T16:35:09.443Z,29.09
2018-05-31T16:38:12.941Z,29.20
2018-05-31T16:41:15.053Z,29.12
2018-05-31T16:44:17.621Z,29.08
2018-05-31T16:47:20.627Z,29.18
2018-05-31T16:50:23.144Z,28.89
2018-05-31T16:53:26.603Z,28.92
2018-05-31T16:56:29.237Z,29.01
2018-05-31T16:59:33.007Z,28.97
2018-05-31T17:02:35.168Z,28.97
2018-05-31T17:05:38.742Z,28.85
2018-05-31T17:08:41.561Z,28.97
2018-05-31T17:11:43.747Z,29.01
2018-05-31T17:14:46.351Z,28.93
2018-05-31T17:17:48.742Z,28.81
2018-05-31T17:20:51.288Z,28.73
2018-05-31T17:23:53.767Z,28.81
2018-05-31T17:26:55.780Z,28.83
2018-05-31T17:29:58.327Z,28.78
2018-05-31T17:33:01.324Z,28.64
2018-05-31T17:36:03.864Z,28.54
2018-05-31T17:39:06.420Z,28.50
2018-05-31T17:42:08.937Z,28.46
2018-05-31T17:45:11.403Z,28.42
2018-05-31T17:48:13.927Z,28.34
2018-05-31T17:51:16.444Z,28.29
2018-05-31T17:54:18.909Z,28.10
2018-05-31T17:57:21.048Z,28.06
2018-05-31T18:00:23.522Z,28.26
2018-05-31T18:03:26.259Z,28.31
2018-05-31T18:06:28.585Z,28.33
2018-05-31T18:09:32.008Z,28.27
2018-05-31T18:12:34.233Z,28.20
2018-05-31T18:15:36.594Z,28.22
2018-05-31T18:18:39.068Z,28.15
2018-05-31T18:21:41.607Z,28.04
2018-05-31T18:24:44.092Z,27.95
2018-05-31T18:27:46.197Z,28.00
2018-05-31T18:30:48.755Z,27.85
2018-05-31T18:33:51.231Z,27.79
2018-05-31T18:36:53.776Z,27.69
2018-05-31T18:39:56.197Z,27.64
2018-05-31T18:42:58.261Z,27.54
2018-05-31T18:46:01.865Z,27.50
2018-05-31T18:49:04.794Z,27.48
2018-05-31T18:52:07.255Z,27.33
2018-05-31T18:55:13.840Z,27.20
2018-05-31T18:58:15.851Z,27.16
2018-05-31T19:01:18.353Z,27.15
2018-05-31T19:04:20.914Z,27.17
2018-05-31T19:07:25.312Z,27.00
2018-05-31T19:10:27.899Z,26.99
2018-05-31T19:14:01.413Z,26.92
2018-05-31T19:17:04.000Z,26.96
2018-05-31T19:20:06.441Z,26.90
2018-05-31T19:23:08.439Z,26.76
2018-05-31T19:26:11.276Z,26.66
2018-05-31T19:29:13.569Z,26.62
2018-05-31T19:32:16.418Z,26.57
2018-05-31T19:35:23.376Z,26.53
2018-05-31T19:38:25.607Z,26.49
2018-05-31T19:41:28.075Z,26.43
2018-05-31T19:44:38.188Z,26.39
2018-05-31T19:47:40.584Z,26.37
2018-05-31T19:50:43.148Z,26.35
2018-05-31T19:53:45.663Z,26.30
2018-05-31T19:56:48.512Z,26.19
2018-05-31T20:00:57.527Z,26.13
2018-05-31T20:03:59.696Z,26.22
2018-05-31T20:07:02.820Z,26.13
2018-05-31T20:10:05.274Z,25.96
2018-05-31T20:13:07.721Z,25.85
2018-05-31T20:16:10.285Z,25.68
2018-05-31T20:19:12.791Z,25.51
2018-05-31T20:22:15.300Z,25.50
2018-05-31T20:25:17.767Z,25.45
2018-05-31T20:28:20.332Z,25.47
2018-05-31T20:31:22.874Z,25.50
2018-05-31T20:34:25.427Z,25.46
2018-05-31T20:37:28.852Z,25.46
2018-05-31T20:40:33.369Z,25.48
2018-05-31T20:43:35.944Z,25.49
2018-05-31T20:46:38.508Z,25.55
2018-05-31T20:49:40.908Z,25.59
2018-05-31T20:52:44.093Z,25.60
2018-05-31T20:55:46.520Z,25.57
2018-05-31T20:58:49.076Z,25.31
2018-05-31T21:01:51.549Z,25.29
2018-05-31T21:04:54.032Z,25.28
2018-05-31T21:07:56.603Z,25.19
2018-05-31T21:10:59.130Z,25.07
2018-05-31T21:14:01.324Z,24.86
2018-05-31T21:17:04.136Z,24.73
2018-05-31T21:20:06.681Z,24.66
2018-05-31T21:23:09.034Z,24.58
2018-05-31T21:26:12.153Z,24.53
2018-05-31T21:29:15.067Z,24.49
2018-05-31T21:32:17.224Z,24.46
2018-05-31T21:35:19.716Z,24.40
2018-05-31T21:38:22.176Z,24.41
2018-05-31T21:41:24.768Z,24.36
2018-05-31T21:44:28.293Z,24.26
2018-05-31T21:47:30.811Z,24.19
2018-05-31T21:50:33.836Z,24.34
2018-05-31T21:53:36.835Z,24.35
2018-05-31T21:56:40.336Z,24.38
2018-05-31T21:59:42.956Z,24.18
2018-05-31T22:02:45.355Z,24.14
2018-05-31T22:05:47.369Z,23.94
2018-05-31T22:08:49.949Z,23.71
2018-05-31T22:11:53.002Z,23.78
2018-05-31T22:14:55.325Z,23.41
2018-05-31T22:17:58.407Z,23.14
2018-05-31T22:21:04.974Z,22.80
2018-05-31T22:24:08.561Z,22.71
2018-05-31T22:27:11.170Z,22.51
2018-05-31T22:30:13.352Z,22.37
2018-05-31T22:33:15.440Z,22.18
2018-05-31T22:36:19.607Z,21.99
2018-05-31T22:39:21.676Z,21.75
2018-05-31T22:42:23.755Z,21.45
2018-05-31T22:45:25.899Z,21.22
2018-05-31T22:48:27.991Z,20.95
2018-05-31T22:51:30.127Z,20.80
2018-05-31T22:54:32.232Z,20.54
2018-05-31T22:57:34.558Z,20.18
2018-05-31T23:00:36.664Z,20.08
2018-05-31T23:03:38.703Z,20.15
2018-05-31T23:06:42.044Z,20.22
2018-05-31T23:09:44.073Z,20.25
2018-05-31T23:12:46.146Z,20.22
2018-05-31T23:15:48.428Z,20.03
2018-05-31T23:18:50.491Z,19.70
2018-05-31T23:21:52.780Z,19.31
2018-05-31T23:24:54.860Z,19.11
2018-05-31T23:27:57.177Z,18.89
2018-05-31T23:31:00.296Z,18.78
2018-05-31T23:34:02.614Z,18.67
2018-05-31T23:37:04.675Z,18.51
2018-05-31T23:40:06.896Z,18.46
2018-05-31T23:43:08.996Z,18.54
2018-05-31T23:46:11.178Z,18.66
2018-05-31T23:49:13.355Z,18.75
2018-05-31T23:52:15.531Z,18.81
2018-05-31T23:55:17.611Z,18.77
2018-05-31T23:58:19.660Z,18.83
